VTCTVTCC

Guest
Details From VTCT - Chiang Rai Intl
To VTCC - Chiang Mai Intl
Flight Number -
Tags generated
Created
Modified
Stats Distance 88 nm / 164 km
Max Altitude 7,500 ft / 2,286 m
Waypoints 4
Social Downloads 1
Likes 0
Share VATSIM

Download

Looking for another format? Having issues loading an existing format? Contact us
Advertisement - Login to hide

Notes

Basic altitude profile: - Ascent Rate: 2500ft/min - Ascent Speed: 250kts - Cruise Altitude: 150ft - Cruise Speed: 420kts - Descent Rate: 1500ft/min - Descent Speed: 250kts Options: - Use NATs: yes - Use PACOTS: yes - Use low airways: yes - Use high airways: yes

Route

VTCT CTR A581 CMA VTCC

ID Type Via Altitude Latitude Longitude Leg Dist Tot Dist Heading (true) Name
O VTCT APT - 0 ft / 0 m 19.95234˚ 99.88293˚ - 0 nm - Chiang Rai Intl
CTR VOR - 0 ft / 0 m 19.94824˚ 99.88337˚ 0 nm 0 nm 174° / 174° CHIANG RAI VOR-DME
CMA VOR A581 (AWY-LO) 7,500 ft / 2,286 m 18.76612˚ 98.96126˚ 88 nm 88 nm 217° / 216° CHIANG MAI VOR-DME
O VTCC APT - 0 ft / 0 m 18.76685˚ 98.96264˚ 0 nm 88 nm 61° / 61° Chiang Mai Intl

Altitude Profile

Advertisement - Login to hide

VTCT

Details ICAO VTCT (CEI)
Name Chiang Rai Intl
Region Thailand
Timezone Asia/Bangkok (UTC+7.0)
Stats Elevation 1,280 ft / 390 m (AMSL)
Location 19.952340° 99.882928°
Runways 1
Magnetic Variation 0.829° W

METAR

VTCT 160300Z VRB02KT CAVOK 19/17 Q1021

Decode

TAF

TAF VTCT 152300Z 1600/1706 00000KT 1500 BR FEW030 BECMG 1602/1604 02005KT 9999 NSW

Decode

Departure Runways

ID Width Length Bearing (true) Bearing (mag) Surface Threshold Offset Overrun Length
03 148 ft / 45 m 9,879 ft / 3,011 m 28.87° 29.70° Asphalt 0 ft / 0 m 197 ft / 60 m
21 148 ft / 45 m 9,879 ft / 3,011 m 208.87° 209.70° Asphalt 0 ft / 0 m 197 ft / 60 m

VTCC

Details ICAO VTCC (CNX)
Name Chiang Mai Intl
Region Thailand
Timezone Asia/Bangkok (UTC+7.0)
Stats Elevation 1,036 ft / 316 m (AMSL)
Location 18.766845° 98.962643°
Runways 1
Magnetic Variation 0.738° W

METAR

VTCC 160330Z 03009KT 9999 FEW035 24/15 Q1020 NOSIG

Decode

TAF

TAF VTCC 152300Z 1600/1706 02005KT 9999 FEW035

Decode

Destination Runways

ID Width Length Bearing (true) Bearing (mag) Surface Threshold Offset Overrun Length
18 148 ft / 45 m 10,237 ft / 3,120 m 180.22° 180.96° Asphalt 0 ft / 0 m 974 ft / 297 m
36 148 ft / 45 m 10,237 ft / 3,120 m 0.22° 0.96° Asphalt 0 ft / 0 m 341 ft / 104 m

Approach Navaids

Runway Type Ident Frequency Range Bearing (true) Bearing (mag) Slope Elevation
36 Localiser ICMA 109.90 MHz 18 nm / 33 km 359.49° 0.23° - 1,035 ft / 315 m (AMSL)
36 Glidescope ICMA 109.90 MHz 10 nm / 19 km 0.22° 0.96° 3.00° 1,005 ft / 306 m (AMSL)
36 DME ICMA 109.90 MHz 18 nm / 33 km - - - 1,035 ft / 315 m (AMSL)

Popular Alternatives